createdAt,value
2019-05-23T00:00:45.920Z,0
2019-05-23T00:01:46.029Z,0
2019-05-23T00:02:45.882Z,0
2019-05-23T00:03:45.921Z,0
2019-05-23T00:04:45.919Z,0
2019-05-23T00:05:46.019Z,0
2019-05-23T00:06:46.002Z,0
2019-05-23T00:07:45.939Z,0
2019-05-23T00:08:45.951Z,0
2019-05-23T00:09:46.012Z,0
2019-05-23T00:10:45.945Z,0
2019-05-23T00:11:46.017Z,0
2019-05-23T00:12:45.949Z,0
2019-05-23T00:13:46.015Z,0
2019-05-23T00:14:46.014Z,0
2019-05-23T00:15:45.943Z,0
2019-05-23T00:16:45.960Z,0
2019-05-23T00:17:45.965Z,0
2019-05-23T00:18:46.020Z,0
2019-05-23T00:19:46.003Z,0
2019-05-23T00:20:46.023Z,0
2019-05-23T00:21:45.948Z,0
2019-05-23T00:22:46.032Z,0
2019-05-23T00:23:45.915Z,0
2019-05-23T00:24:45.957Z,0
2019-05-23T00:25:46.022Z,0
2019-05-23T00:26:46.026Z,0
2019-05-23T00:27:46.033Z,0
2019-05-23T00:28:45.981Z,0
2019-05-23T00:29:45.966Z,0
2019-05-23T00:30:45.955Z,0
2019-05-23T00:31:46.071Z,0
2019-05-23T00:32:45.988Z,0
2019-05-23T00:33:45.994Z,0
2019-05-23T00:34:45.957Z,0
2019-05-23T00:35:46.033Z,0
2019-05-23T00:36:46.036Z,0
2019-05-23T00:37:46.047Z,0
2019-05-23T00:38:46.039Z,0
2019-05-23T00:39:45.960Z,0
2019-05-23T00:40:45.962Z,0
2019-05-23T00:41:45.976Z,0
2019-05-23T00:42:45.982Z,0
2019-05-23T00:43:45.979Z,0
2019-05-23T00:44:45.977Z,0
2019-05-23T00:45:45.965Z,0
2019-05-23T00:46:45.978Z,0
2019-05-23T00:47:46.021Z,0
2019-05-23T00:48:46.009Z,0
2019-05-23T00:49:46.028Z,0
2019-05-23T00:50:46.103Z,0
2019-05-23T00:51:45.936Z,0
2019-05-23T00:52:45.999Z,0
2019-05-23T00:53:45.929Z,0
2019-05-23T00:54:46.059Z,0
2019-05-23T00:55:46.049Z,0
2019-05-23T00:56:46.038Z,0
2019-05-23T00:57:46.050Z,0
2019-05-23T00:58:46.050Z,0
2019-05-23T00:59:46.040Z,0
2019-05-23T01:00:46.050Z,0
2019-05-23T01:01:46.069Z,0
2019-05-23T01:02:45.993Z,0
2019-05-23T01:03:45.945Z,0
2019-05-23T01:04:45.986Z,0
2019-05-23T01:05:46.007Z,0
2019-05-23T01:06:45.956Z,0
2019-05-23T01:07:45.920Z,0
2019-05-23T01:08:45.975Z,0
2019-05-23T01:09:45.927Z,0
2019-05-23T01:10:46.032Z,0
2019-05-23T01:11:45.950Z,0
2019-05-23T01:12:46.046Z,0
2019-05-23T01:13:45.950Z,0
2019-05-23T01:14:45.971Z,0
2019-05-23T01:15:45.988Z,0
2019-05-23T01:16:46.065Z,0
2019-05-23T01:17:46.021Z,0
2019-05-23T01:18:46.003Z,0
2019-05-23T01:19:46.011Z,0
2019-05-23T01:20:45.953Z,0
2019-05-23T01:21:45.999Z,0
2019-05-23T01:22:46.013Z,0
2019-05-23T01:23:45.994Z,0
2019-05-23T01:24:46.076Z,0
2019-05-23T01:25:46.076Z,0
2019-05-23T01:26:46.069Z,0
2019-05-23T01:27:46.000Z,0
2019-05-23T01:28:46.090Z,0
2019-05-23T01:29:49.724Z,0
2019-05-23T01:30:46.079Z,0
2019-05-23T01:31:46.045Z,0
2019-05-23T01:32:46.001Z,0
2019-05-23T01:33:46.076Z,0
2019-05-23T01:34:46.118Z,0
2019-05-23T01:35:46.059Z,0
2019-05-23T01:36:45.982Z,0
2019-05-23T01:37:46.069Z,0
2019-05-23T01:38:45.964Z,0
2019-05-23T01:39:45.947Z,0
2019-05-23T01:40:46.058Z,0
2019-05-23T01:41:46.065Z,0
2019-05-23T01:42:45.999Z,0
2019-05-23T01:43:46.068Z,0
2019-05-23T01:44:46.068Z,0
2019-05-23T01:45:46.033Z,0
2019-05-23T01:46:46.056Z,0
2019-05-23T01:47:45.982Z,0
2019-05-23T01:48:45.956Z,0
2019-05-23T01:49:45.999Z,0
2019-05-23T01:50:45.998Z,0
2019-05-23T01:51:46.041Z,0
2019-05-23T01:52:45.952Z,0
2019-05-23T01:53:45.948Z,0
2019-05-23T01:54:45.972Z,0
2019-05-23T01:55:46.088Z,0
2019-05-23T01:56:46.030Z,0
2019-05-23T01:57:46.098Z,0
2019-05-23T01:58:46.023Z,0
2019-05-23T01:59:46.100Z,0
2019-05-23T02:00:46.112Z,0
2019-05-23T02:01:46.029Z,0
2019-05-23T02:02:46.041Z,0
2019-05-23T02:03:46.091Z,0
2019-05-23T02:04:46.106Z,0
2019-05-23T02:05:46.083Z,0
2019-05-23T02:06:46.038Z,0
2019-05-23T02:07:46.033Z,0
2019-05-23T02:08:46.026Z,0
2019-05-23T02:09:46.053Z,0
2019-05-23T02:10:46.026Z,0
2019-05-23T02:11:46.096Z,0
2019-05-23T02:12:46.089Z,0
2019-05-23T02:13:46.034Z,0
2019-05-23T02:14:46.106Z,0
2019-05-23T02:15:46.033Z,0
2019-05-23T02:16:46.035Z,0
2019-05-23T02:17:46.043Z,0
2019-05-23T02:18:46.070Z,0
2019-05-23T02:19:46.053Z,0
2019-05-23T02:20:46.107Z,0
2019-05-23T02:21:46.110Z,0
2019-05-23T02:22:46.059Z,0
2019-05-23T02:23:46.114Z,0
2019-05-23T02:24:46.189Z,0
2019-05-23T02:25:46.088Z,0
2019-05-23T02:26:46.003Z,0
2019-05-23T02:27:46.005Z,0
2019-05-23T02:28:46.072Z,0
2019-05-23T02:29:46.005Z,0
2019-05-23T02:30:46.097Z,0
2019-05-23T02:31:46.103Z,0
2019-05-23T02:32:46.057Z,0
2019-05-23T02:33:46.030Z,0
2019-05-23T02:34:46.070Z,0
2019-05-23T02:35:46.063Z,0
2019-05-23T02:36:46.127Z,0
2019-05-23T02:37:46.122Z,0
2019-05-23T02:38:46.055Z,0
2019-05-23T02:39:46.052Z,0
2019-05-23T02:40:46.119Z,0
2019-05-23T02:41:46.062Z,0
2019-05-23T02:42:46.149Z,0
2019-05-23T02:43:46.054Z,0
2019-05-23T02:44:46.061Z,0
2019-05-23T02:45:46.067Z,0
2019-05-23T02:46:46.067Z,0
2019-05-23T02:47:46.060Z,0
2019-05-23T02:48:46.135Z,0
2019-05-23T02:49:46.059Z,0
2019-05-23T02:50:46.060Z,0
2019-05-23T02:51:46.145Z,0
2019-05-23T02:52:46.141Z,0
2019-05-23T02:53:46.064Z,0
2019-05-23T02:54:46.094Z,0
2019-05-23T02:55:46.088Z,0
2019-05-23T02:56:46.033Z,0
2019-05-23T02:57:46.121Z,0
2019-05-23T02:58:46.070Z,0
2019-05-23T02:59:46.072Z,0
2019-05-23T03:00:54.363Z,0
2019-05-23T03:01:46.093Z,0
2019-05-23T03:02:46.064Z,0
2019-05-23T03:03:46.121Z,0
2019-05-23T03:04:46.130Z,0
2019-05-23T03:05:46.077Z,0
2019-05-23T03:06:46.086Z,0
2019-05-23T03:07:46.171Z,0
2019-05-23T03:08:46.153Z,0
2019-05-23T03:09:46.143Z,0
2019-05-23T03:10:46.078Z,0
2019-05-23T03:11:46.077Z,0
2019-05-23T03:12:46.075Z,0
2019-05-23T03:13:46.178Z,0
2019-05-23T03:14:46.078Z,0
2019-05-23T03:15:46.083Z,0
2019-05-23T03:16:46.211Z,0
2019-05-23T03:17:46.100Z,0
2019-05-23T03:18:46.100Z,0
2019-05-23T03:19:46.095Z,0
2019-05-23T03:20:46.153Z,0
2019-05-23T03:21:46.158Z,0
2019-05-23T03:22:46.244Z,0
2019-05-23T03:23:46.104Z,0
2019-05-23T03:24:46.176Z,0
2019-05-23T03:25:46.157Z,0
2019-05-23T03:26:46.160Z,0
2019-05-23T03:27:46.173Z,0
2019-05-23T03:28:46.179Z,0
2019-05-23T03:29:46.171Z,0
2019-05-23T03:30:46.094Z,0
2019-05-23T03:31:46.178Z,0
2019-05-23T03:32:46.173Z,0
2019-05-23T03:33:46.192Z,0
2019-05-23T03:34:46.179Z,0
2019-05-23T03:35:46.315Z,0
2019-05-23T03:36:46.082Z,0
2019-05-23T03:37:46.157Z,0
2019-05-23T03:38:46.079Z,0
2019-05-23T03:39:46.083Z,0
2019-05-23T03:40:46.158Z,0
2019-05-23T03:41:46.160Z,0
2019-05-23T03:42:46.079Z,0
2019-05-23T03:43:46.172Z,0
2019-05-23T03:44:46.156Z,0
2019-05-23T03:45:46.177Z,0
2019-05-23T03:46:46.106Z,0
2019-05-23T03:47:46.170Z,0
2019-05-23T03:48:46.212Z,0
2019-05-23T03:49:46.109Z,0
2019-05-23T03:50:46.170Z,14
2019-05-23T03:51:46.104Z,15
2019-05-23T03:52:46.182Z,15
2019-05-23T03:53:46.193Z,14
2019-05-23T03:54:46.212Z,15
2019-05-23T03:55:46.180Z,16
2019-05-23T03:56:46.127Z,17
2019-05-23T03:57:46.114Z,18
2019-05-23T03:58:46.176Z,20
2019-05-23T03:59:46.181Z,20
2019-05-23T04:00:46.180Z,21
2019-05-23T04:01:48.896Z,24
2019-05-23T04:02:46.118Z,25
2019-05-23T04:03:46.183Z,27
2019-05-23T04:04:46.215Z,28
2019-05-23T04:05:46.169Z,28
2019-05-23T04:07:46.199Z,27
2019-05-23T04:08:46.147Z,25
2019-05-23T04:09:46.189Z,28
2019-05-23T04:10:46.184Z,29
2019-05-23T04:11:46.186Z,31
2019-05-23T04:12:46.192Z,32
2019-05-23T04:13:46.198Z,39
2019-05-23T04:14:46.120Z,42
2019-05-23T04:15:46.185Z,47
2019-05-23T04:16:46.178Z,50
2019-05-23T04:17:46.184Z,55
2019-05-23T04:18:46.122Z,58
2019-05-23T04:19:46.177Z,54
2019-05-23T04:20:46.087Z,49
2019-05-23T04:21:46.190Z,45
2019-05-23T04:22:46.120Z,45
2019-05-23T04:23:46.191Z,45
2019-05-23T04:24:46.165Z,46
2019-05-23T04:25:46.195Z,44
2019-05-23T04:26:46.214Z,42
2019-05-23T04:27:46.151Z,40
2019-05-23T04:28:46.285Z,39
2019-05-23T04:29:46.214Z,39
2019-05-23T04:30:46.141Z,39
2019-05-23T04:32:03.724Z,40
2019-05-23T04:32:46.146Z,37
2019-05-23T04:33:46.262Z,38
2019-05-23T04:34:46.205Z,44
2019-05-23T04:35:46.124Z,48
2019-05-23T04:36:46.107Z,52
2019-05-23T04:37:46.213Z,51
2019-05-23T04:38:46.227Z,50
2019-05-23T04:39:46.211Z,55
2019-05-23T04:40:46.136Z,58
2019-05-23T04:41:46.227Z,55
2019-05-23T04:42:46.209Z,56
2019-05-23T04:43:46.201Z,58
2019-05-23T04:44:46.200Z,62
2019-05-23T04:45:46.232Z,64
2019-05-23T04:46:46.220Z,58
2019-05-23T04:47:46.236Z,62
2019-05-23T04:48:46.222Z,68
2019-05-23T04:49:46.233Z,68
2019-05-23T04:50:46.151Z,76
2019-05-23T04:51:46.164Z,83
2019-05-23T04:52:46.162Z,79
2019-05-23T04:53:46.225Z,74
2019-05-23T04:54:46.230Z,68
2019-05-23T04:55:46.152Z,69
2019-05-23T04:56:46.205Z,73
2019-05-23T04:57:46.313Z,73
2019-05-23T04:58:46.225Z,80
2019-05-23T04:59:46.224Z,79
2019-05-23T05:00:46.225Z,83
2019-05-23T05:01:46.181Z,84
2019-05-23T05:02:46.166Z,91
2019-05-23T05:03:46.227Z,83
2019-05-23T05:04:46.271Z,84
2019-05-23T05:05:46.221Z,95
2019-05-23T05:06:46.220Z,96
2019-05-23T05:07:46.225Z,87
2019-05-23T05:08:46.221Z,90
2019-05-23T05:09:46.221Z,91
2019-05-23T05:10:46.254Z,85
2019-05-23T05:11:46.137Z,76
2019-05-23T05:12:46.228Z,72
2019-05-23T05:13:46.152Z,77
2019-05-23T05:14:46.222Z,83
2019-05-23T05:15:46.155Z,100
2019-05-23T05:16:46.221Z,107
2019-05-23T05:17:46.162Z,111
2019-05-23T05:18:46.242Z,120
2019-05-23T05:19:46.168Z,126
2019-05-23T05:20:46.232Z,132
2019-05-23T05:21:46.230Z,139
2019-05-23T05:22:46.271Z,145
2019-05-23T05:23:46.168Z,145
2019-05-23T05:24:46.153Z,141
2019-05-23T05:25:46.232Z,114
2019-05-23T05:26:46.160Z,107
2019-05-23T05:27:46.234Z,115
2019-05-23T05:28:46.169Z,119
2019-05-23T05:29:46.168Z,119
2019-05-23T05:30:46.159Z,147
2019-05-23T05:31:46.269Z,189
2019-05-23T05:32:46.163Z,177
2019-05-23T05:33:46.240Z,184
2019-05-23T05:34:46.190Z,206
2019-05-23T05:35:46.181Z,211
2019-05-23T05:36:46.268Z,229
2019-05-23T05:37:46.193Z,236
2019-05-23T05:38:46.257Z,238
2019-05-23T05:39:46.275Z,259
2019-05-23T05:40:46.189Z,253
2019-05-23T05:41:46.279Z,222
2019-05-23T05:42:46.184Z,223
2019-05-23T05:43:46.204Z,240
2019-05-23T05:44:46.192Z,229
2019-05-23T05:45:46.194Z,231
2019-05-23T05:46:46.225Z,224
2019-05-23T05:47:46.255Z,197
2019-05-23T05:48:46.199Z,209
2019-05-23T05:49:46.209Z,197
2019-05-23T05:50:46.198Z,183
2019-05-23T05:51:46.192Z,193
2019-05-23T05:52:46.269Z,189
2019-05-23T05:53:46.201Z,196
2019-05-23T05:54:46.266Z,206
2019-05-23T05:55:46.367Z,205
2019-05-23T05:56:46.201Z,213
2019-05-23T05:57:46.264Z,231
2019-05-23T05:58:46.272Z,235
2019-05-23T05:59:46.276Z,255
2019-05-23T06:00:46.216Z,258
2019-05-23T06:01:46.267Z,246
2019-05-23T06:03:02.767Z,261
2019-05-23T06:03:46.279Z,276
2019-05-23T06:04:46.209Z,285
2019-05-23T06:05:46.223Z,292
2019-05-23T06:06:49.847Z,278
2019-05-23T06:07:46.137Z,254
2019-05-23T06:08:46.201Z,266
2019-05-23T06:09:46.183Z,266
2019-05-23T06:10:46.139Z,259
2019-05-23T06:11:46.168Z,275
2019-05-23T06:12:46.176Z,245
2019-05-23T06:13:46.257Z,228
2019-05-23T06:14:46.720Z,227
2019-05-23T06:15:46.237Z,238
2019-05-23T06:16:46.197Z,240
2019-05-23T06:17:46.270Z,229
2019-05-23T06:18:46.265Z,212
2019-05-23T06:19:46.274Z,205
2019-05-23T06:20:46.274Z,195
2019-05-23T06:21:46.206Z,184
2019-05-23T06:22:46.166Z,187
2019-05-23T06:23:46.273Z,198
2019-05-23T06:24:52.021Z,204
2019-05-23T06:25:46.209Z,191
2019-05-23T06:26:46.292Z,155
2019-05-23T06:27:46.253Z,161
2019-05-23T06:28:46.222Z,179
2019-05-23T06:29:46.236Z,186
2019-05-23T06:30:46.289Z,166
2019-05-23T06:31:46.267Z,173
2019-05-23T06:32:46.294Z,178
2019-05-23T06:33:46.227Z,195
2019-05-23T06:34:46.293Z,185
2019-05-23T06:35:46.295Z,187
2019-05-23T06:36:46.239Z,193
2019-05-23T06:37:46.302Z,312
2019-05-23T06:38:46.227Z,315
2019-05-23T06:39:46.305Z,297
2019-05-23T06:40:46.229Z,311
2019-05-23T06:41:46.232Z,345
2019-05-23T06:42:50.302Z,332
2019-05-23T06:43:46.348Z,292
2019-05-23T06:44:46.255Z,301
2019-05-23T06:45:46.305Z,311
2019-05-23T06:46:46.204Z,329
2019-05-23T06:47:46.238Z,332
2019-05-23T06:48:46.468Z,376
2019-05-23T06:49:46.219Z,411
2019-05-23T06:50:46.241Z,411
2019-05-23T06:51:46.256Z,450
2019-05-23T06:52:46.195Z,459
2019-05-23T06:53:46.221Z,462
2019-05-23T06:54:46.152Z,466
2019-05-23T06:55:46.262Z,449
2019-05-23T06:56:46.254Z,455
2019-05-23T06:57:46.320Z,481
2019-05-23T06:58:46.330Z,485
2019-05-23T06:59:46.363Z,478
2019-05-23T07:00:46.332Z,474
2019-05-23T07:01:46.315Z,464
2019-05-23T07:02:46.273Z,478
2019-05-23T07:03:46.326Z,473
2019-05-23T07:04:46.274Z,456
2019-05-23T07:05:46.324Z,524
2019-05-23T07:06:46.350Z,546
2019-05-23T07:07:46.253Z,550
2019-05-23T07:08:46.380Z,569
2019-05-23T07:09:46.263Z,582
2019-05-23T07:10:46.258Z,569
2019-05-23T07:11:46.321Z,562
2019-05-23T07:12:46.253Z,525
2019-05-23T07:13:46.323Z,555
2019-05-23T07:14:46.322Z,569
2019-05-23T07:15:46.258Z,558
2019-05-23T07:16:50.093Z,549
2019-05-23T07:17:46.337Z,530
2019-05-23T07:18:46.260Z,504
2019-05-23T07:19:46.261Z,562
2019-05-23T07:20:46.389Z,661
2019-05-23T07:21:46.340Z,644
2019-05-23T07:22:46.404Z,669
2019-05-23T07:23:46.261Z,680
2019-05-23T07:24:57.313Z,691
2019-05-23T07:25:46.263Z,680
2019-05-23T07:26:46.299Z,682
2019-05-23T07:27:46.263Z,699
2019-05-23T07:28:46.334Z,694
2019-05-23T07:29:46.334Z,714
2019-05-23T07:30:46.328Z,716
2019-05-23T07:31:46.322Z,707
2019-05-23T07:32:46.349Z,711
2019-05-23T07:34:01.020Z,715
2019-05-23T07:34:46.267Z,722
2019-05-23T07:35:46.278Z,723
2019-05-23T07:36:46.341Z,732
2019-05-23T07:37:46.348Z,746
2019-05-23T07:38:46.278Z,751
2019-05-23T07:39:46.345Z,767
2019-05-23T07:40:46.381Z,737
2019-05-23T07:41:46.274Z,697
2019-05-23T07:42:46.286Z,702
2019-05-23T07:43:46.367Z,740
2019-05-23T07:44:48.608Z,782
2019-05-23T07:45:46.350Z,790
2019-05-23T07:46:46.284Z,777
2019-05-23T07:47:46.283Z,789
2019-05-23T07:48:46.362Z,799
2019-05-23T07:49:46.349Z,791
2019-05-23T07:50:46.283Z,798
2019-05-23T07:51:46.354Z,802
2019-05-23T07:52:46.352Z,792
2019-05-23T07:53:46.311Z,803
2019-05-23T07:54:46.371Z,809
2019-05-23T07:55:46.301Z,804
2019-05-23T07:56:46.342Z,784
2019-05-23T07:57:46.343Z,782
2019-05-23T07:58:46.234Z,787
2019-05-23T07:59:46.347Z,804
2019-05-23T08:00:46.408Z,803
2019-05-23T08:01:46.304Z,681
2019-05-23T08:02:46.385Z,659
2019-05-23T08:03:46.247Z,736
2019-05-23T08:04:46.273Z,759
2019-05-23T08:05:46.323Z,756
2019-05-23T08:06:48.992Z,729
2019-05-23T08:07:46.436Z,780
2019-05-23T08:08:46.304Z,790
2019-05-23T08:09:46.359Z,776
2019-05-23T08:10:46.310Z,784
2019-05-23T08:11:46.316Z,784
2019-05-23T08:12:46.305Z,763
2019-05-23T08:13:46.372Z,746
2019-05-23T08:14:46.379Z,743
2019-05-23T08:15:46.382Z,770
2019-05-23T08:16:46.370Z,745
2019-05-23T08:17:46.375Z,791
2019-05-23T08:18:46.301Z,784
2019-05-23T08:19:49.716Z,798
2019-05-23T08:20:46.358Z,794
2019-05-23T08:21:46.386Z,815
2019-05-23T08:22:46.364Z,840
2019-05-23T08:23:46.312Z,834
2019-05-23T08:24:50.703Z,829
2019-05-23T08:25:46.310Z,851
2019-05-23T08:26:46.407Z,837
2019-05-23T08:29:00.820Z,884
2019-05-23T08:29:46.383Z,848
2019-05-23T08:30:46.307Z,855
2019-05-23T08:31:46.385Z,871
2019-05-23T08:32:46.384Z,859
2019-05-23T08:33:46.334Z,865
2019-05-23T08:34:46.416Z,873
2019-05-23T08:35:46.313Z,878
2019-05-23T08:36:46.397Z,882
2019-05-23T08:37:46.334Z,868
2019-05-23T08:38:46.387Z,879
2019-05-23T08:39:46.315Z,870
2019-05-23T08:40:46.397Z,886
2019-05-23T08:41:46.433Z,885
2019-05-23T08:42:46.400Z,897
2019-05-23T08:43:46.352Z,898
2019-05-23T08:44:46.397Z,906
2019-05-23T08:45:46.281Z,917
2019-05-23T08:46:46.388Z,918
2019-05-23T08:47:46.306Z,916
2019-05-23T08:48:46.311Z,908
2019-05-23T08:49:46.401Z,897
2019-05-23T08:50:46.393Z,898
2019-05-23T08:51:46.313Z,898
2019-05-23T08:52:46.385Z,903
2019-05-23T08:53:46.390Z,902
2019-05-23T08:54:46.314Z,886
2019-05-23T08:55:46.388Z,898
2019-05-23T08:56:46.313Z,902
2019-05-23T08:57:46.394Z,898
2019-05-23T08:58:46.319Z,902
2019-05-23T08:59:46.458Z,902
2019-05-23T09:00:46.335Z,892
2019-05-23T09:01:46.406Z,739
2019-05-23T09:02:46.397Z,898
2019-05-23T09:03:46.395Z,934
2019-05-23T09:05:03.328Z,947
2019-05-23T09:05:46.343Z,963
2019-05-23T09:06:46.429Z,965
2019-05-23T09:07:46.344Z,966
2019-05-23T09:08:46.409Z,971
2019-05-23T09:09:46.351Z,952
2019-05-23T09:10:46.343Z,965
2019-05-23T09:11:46.412Z,970
2019-05-23T09:12:46.471Z,959
2019-05-23T09:13:46.346Z,948
2019-05-23T09:14:46.345Z,911
2019-05-23T09:15:46.424Z,952
2019-05-23T09:16:46.414Z,996
2019-05-23T09:17:52.964Z,969
2019-05-23T09:18:46.355Z,941
2019-05-23T09:19:46.383Z,1002
2019-05-23T09:20:46.422Z,988
2019-05-23T09:21:46.353Z,893
2019-05-23T09:22:46.419Z,959
2019-05-23T09:23:46.373Z,946
2019-05-23T09:24:46.311Z,991
2019-05-23T09:25:46.367Z,990
2019-05-23T09:26:46.338Z,988
2019-05-23T09:27:46.277Z,998
2019-05-23T09:28:46.335Z,1000
2019-05-23T09:29:46.366Z,999
2019-05-23T09:30:46.300Z,991
2019-05-23T09:31:46.333Z,970
2019-05-23T09:32:46.375Z,989
2019-05-23T09:33:46.313Z,623
2019-05-23T09:34:46.379Z,995
2019-05-23T09:35:46.336Z,1003
2019-05-23T09:36:46.438Z,905
2019-05-23T09:37:46.438Z,970
2019-05-23T09:38:46.334Z,999
2019-05-23T09:39:46.361Z,999
2019-05-23T09:40:46.364Z,1041
2019-05-23T09:41:46.492Z,986
2019-05-23T09:42:46.362Z,1006
2019-05-23T09:43:46.369Z,1004
2019-05-23T09:44:46.462Z,989
2019-05-23T09:45:46.492Z,958
2019-05-23T09:46:46.350Z,1009
2019-05-23T09:47:50.737Z,1020
2019-05-23T09:48:46.341Z,445
2019-05-23T09:49:53.936Z,423
2019-05-23T09:50:46.358Z,1028
2019-05-23T09:51:47.595Z,444
2019-05-23T09:52:46.431Z,1019
2019-05-23T09:53:47.733Z,496
2019-05-23T09:54:46.442Z,706
2019-05-23T09:55:46.431Z,340
2019-05-23T09:56:46.447Z,722
2019-05-23T09:57:46.374Z,836
2019-05-23T09:58:46.452Z,987
2019-05-23T09:59:46.449Z,1034
2019-05-23T10:00:46.448Z,1074
2019-05-23T10:01:46.388Z,1070
2019-05-23T10:02:46.447Z,1077
2019-05-23T10:03:46.391Z,1031
2019-05-23T10:04:46.459Z,1036
2019-05-23T10:05:46.452Z,1047
2019-05-23T10:06:46.575Z,1034
2019-05-23T10:07:46.414Z,1086
2019-05-23T10:08:46.392Z,1144
2019-05-23T10:09:46.468Z,1122
2019-05-23T10:10:46.383Z,461
2019-05-23T10:11:46.383Z,1084
2019-05-23T10:12:46.461Z,1063
2019-05-23T10:13:46.460Z,1094
2019-05-23T10:14:46.464Z,1118
2019-05-23T10:15:46.488Z,1128
2019-05-23T10:16:46.396Z,497
2019-05-23T10:17:46.376Z,364
2019-05-23T10:18:46.448Z,1091
2019-05-23T10:19:46.387Z,1125
2019-05-23T10:20:46.442Z,1115
2019-05-23T10:21:46.457Z,1117
2019-05-23T10:22:46.372Z,937
2019-05-23T10:23:46.456Z,996
2019-05-23T10:24:46.333Z,1083
2019-05-23T10:25:46.449Z,1082
2019-05-23T10:26:46.501Z,1077
2019-05-23T10:27:46.436Z,1104
2019-05-23T10:28:46.472Z,1103
2019-05-23T10:29:46.429Z,1105
2019-05-23T10:30:46.401Z,1124
2019-05-23T10:31:46.488Z,1119
2019-05-23T10:32:46.404Z,1126
2019-05-23T10:33:46.478Z,1112
2019-05-23T10:34:46.490Z,1087
2019-05-23T10:35:59.624Z,1101
2019-05-23T10:36:46.407Z,1085
2019-05-23T10:37:46.365Z,1091
2019-05-23T10:38:46.479Z,1098
2019-05-23T10:39:46.516Z,1110
2019-05-23T10:40:46.426Z,1108
2019-05-23T10:41:46.542Z,1115
2019-05-23T10:42:46.516Z,1087
2019-05-23T10:43:46.484Z,1105
2019-05-23T10:44:46.538Z,1071
2019-05-23T10:45:46.509Z,1069
2019-05-23T10:46:46.493Z,1062
2019-05-23T10:47:46.495Z,1059
2019-05-23T10:48:46.500Z,367
2019-05-23T10:49:46.485Z,448
2019-05-23T10:50:46.459Z,1097
2019-05-23T10:51:46.495Z,1073
2019-05-23T10:52:46.427Z,507
2019-05-23T10:53:46.379Z,1096
2019-05-23T10:54:46.417Z,409
2019-05-23T10:55:46.493Z,444
2019-05-23T10:56:46.407Z,939
2019-05-23T10:57:46.475Z,354
2019-05-23T10:58:46.413Z,375
2019-05-23T10:59:46.480Z,404
2019-05-23T11:00:46.413Z,451
2019-05-23T11:01:46.483Z,1138
2019-05-23T11:02:46.456Z,1169
2019-05-23T11:03:46.421Z,1183
2019-05-23T11:04:46.485Z,1183
2019-05-23T11:05:46.412Z,974
2019-05-23T11:06:46.487Z,978
2019-05-23T11:07:46.362Z,1210
2019-05-23T11:08:46.375Z,1236
2019-05-23T11:09:46.398Z,1277
2019-05-23T11:10:46.551Z,1265
2019-05-23T11:11:46.650Z,532
2019-05-23T11:12:46.436Z,483
2019-05-23T11:13:46.455Z,499
2019-05-23T11:14:46.381Z,510
2019-05-23T11:15:46.482Z,493
2019-05-23T11:16:46.507Z,518
2019-05-23T11:17:46.506Z,717
2019-05-23T11:18:46.437Z,1333
2019-05-23T11:19:46.513Z,1340
2019-05-23T11:20:46.440Z,736
2019-05-23T11:21:46.542Z,746
2019-05-23T11:22:46.443Z,1217
2019-05-23T11:23:46.439Z,593
2019-05-23T11:24:46.521Z,534
2019-05-23T11:25:46.515Z,494
2019-05-23T11:26:46.382Z,469
2019-05-23T11:27:46.462Z,446
2019-05-23T11:28:46.505Z,428
2019-05-23T11:29:46.501Z,412
2019-05-23T11:30:46.454Z,394
2019-05-23T11:31:46.452Z,387
2019-05-23T11:32:46.412Z,386
2019-05-23T11:33:46.455Z,381
2019-05-23T11:34:46.506Z,380
2019-05-23T11:35:46.459Z,380
2019-05-23T11:36:46.467Z,377
2019-05-23T11:37:46.451Z,375
2019-05-23T11:38:46.583Z,377
2019-05-23T11:39:49.759Z,380
2019-05-23T11:40:46.530Z,389
2019-05-23T11:41:46.540Z,403
2019-05-23T11:42:46.521Z,421
2019-05-23T11:43:46.462Z,437
2019-05-23T11:44:46.453Z,456
2019-05-23T11:45:46.591Z,472
2019-05-23T11:46:46.442Z,488
2019-05-23T11:47:46.383Z,509
2019-05-23T11:48:46.481Z,550
2019-05-23T11:49:46.833Z,623
2019-05-23T11:50:46.471Z,656
2019-05-23T11:51:46.481Z,790
2019-05-23T11:52:46.459Z,1135
2019-05-23T11:54:04.079Z,1278
2019-05-23T11:54:46.446Z,588
2019-05-23T11:55:46.485Z,568
2019-05-23T11:56:46.536Z,518
2019-05-23T11:57:46.477Z,560
2019-05-23T11:58:46.491Z,1215
2019-05-23T11:59:46.470Z,1191
2019-05-23T12:00:46.574Z,1081
2019-05-23T12:01:46.536Z,1061
2019-05-23T12:02:46.481Z,971
2019-05-23T12:03:46.482Z,1044
2019-05-23T12:04:46.479Z,1050
2019-05-23T12:05:46.491Z,999
2019-05-23T12:06:55.138Z,1051
2019-05-23T12:07:46.532Z,1079
2019-05-23T12:08:46.466Z,403
2019-05-23T12:09:46.533Z,345
2019-05-23T12:10:46.546Z,987
2019-05-23T12:11:46.460Z,474
2019-05-23T12:12:46.540Z,389
2019-05-23T12:13:46.477Z,391
2019-05-23T12:14:46.573Z,1070
2019-05-23T12:15:46.545Z,1032
2019-05-23T12:16:46.461Z,995
2019-05-23T12:17:46.441Z,1139
2019-05-23T12:18:46.418Z,1145
2019-05-23T12:19:46.542Z,1142
2019-05-23T12:20:46.541Z,1116
2019-05-23T12:21:46.541Z,1127
2019-05-23T12:22:46.571Z,1131
2019-05-23T12:23:46.481Z,1138
2019-05-23T12:24:46.457Z,1133
2019-05-23T12:25:46.547Z,411
2019-05-23T12:26:46.450Z,405
2019-05-23T12:27:46.572Z,418
2019-05-23T12:28:46.496Z,500
2019-05-23T12:29:46.527Z,1160
2019-05-23T12:30:46.527Z,1146
2019-05-23T12:31:49.541Z,1120
2019-05-23T12:32:46.499Z,1117
2019-05-23T12:33:46.659Z,1112
2019-05-23T12:35:07.909Z,1099
2019-05-23T12:35:46.577Z,1090
2019-05-23T12:36:46.452Z,1075
2019-05-23T12:37:46.478Z,1057
2019-05-23T12:38:46.420Z,1058
2019-05-23T12:39:46.445Z,1062
2019-05-23T12:40:46.529Z,1066
2019-05-23T12:41:46.433Z,1051
2019-05-23T12:42:46.456Z,1030
2019-05-23T12:43:46.482Z,967
2019-05-23T12:44:46.470Z,989
2019-05-23T12:45:46.472Z,934
2019-05-23T12:46:46.444Z,1064
2019-05-23T12:47:46.490Z,1006
2019-05-23T12:48:46.448Z,958
2019-05-23T12:49:46.491Z,837
2019-05-23T12:50:46.558Z,780
2019-05-23T12:51:46.548Z,939
2019-05-23T12:52:46.452Z,1017
2019-05-23T12:53:46.544Z,1021
2019-05-23T12:54:46.438Z,1014
2019-05-23T12:55:46.521Z,1013
2019-05-23T12:56:48.919Z,992
2019-05-23T12:57:46.508Z,1038
2019-05-23T12:58:46.517Z,1028
2019-05-23T12:59:46.572Z,1041
2019-05-23T13:00:46.493Z,1055
2019-05-23T13:01:46.567Z,1040
2019-05-23T13:02:46.521Z,1048
2019-05-23T13:03:46.573Z,1051
2019-05-23T13:04:46.483Z,1040
2019-05-23T13:05:46.570Z,1061
2019-05-23T13:06:46.582Z,418
2019-05-23T13:08:46.597Z,1020
2019-05-23T13:09:46.533Z,978
2019-05-23T13:10:46.588Z,340
2019-05-23T13:11:46.527Z,313
2019-05-23T13:12:46.517Z,294
2019-05-23T13:13:46.594Z,290
2019-05-23T13:14:46.588Z,301
2019-05-23T13:15:46.520Z,321
2019-05-23T13:16:46.595Z,342
2019-05-23T13:17:46.597Z,381
2019-05-23T13:18:46.597Z,753
2019-05-23T13:19:46.607Z,864
2019-05-23T13:20:46.594Z,761
2019-05-23T13:21:46.593Z,427
2019-05-23T13:22:46.544Z,421
2019-05-23T13:23:46.535Z,432
2019-05-23T13:24:52.922Z,416
2019-05-23T13:25:46.623Z,412
2019-05-23T13:26:46.599Z,840
2019-05-23T13:27:46.503Z,867
2019-05-23T13:28:46.605Z,784
2019-05-23T13:29:46.548Z,781
2019-05-23T13:30:46.610Z,863
2019-05-23T13:31:46.625Z,953
2019-05-23T13:32:46.606Z,925
2019-05-23T13:33:46.540Z,868
2019-05-23T13:34:46.630Z,885
2019-05-23T13:35:46.537Z,862
2019-05-23T13:36:46.552Z,790
2019-05-23T13:37:53.799Z,748
2019-05-23T13:38:46.571Z,548
2019-05-23T13:39:46.539Z,715
2019-05-23T13:40:46.556Z,602
2019-05-23T13:41:46.554Z,565
2019-05-23T13:42:46.608Z,422
2019-05-23T13:43:46.545Z,423
2019-05-23T13:44:46.613Z,661
2019-05-23T13:45:46.615Z,715
2019-05-23T13:46:46.621Z,711
2019-05-23T13:47:46.609Z,655
2019-05-23T13:48:46.614Z,585
2019-05-23T13:49:46.548Z,572
2019-05-23T13:50:46.620Z,559
2019-05-23T13:51:46.574Z,538
2019-05-23T13:52:46.640Z,572
2019-05-23T13:53:46.611Z,673
2019-05-23T13:54:46.556Z,773
2019-05-23T13:55:46.614Z,708
2019-05-23T13:56:47.845Z,700
2019-05-23T13:57:46.505Z,718
2019-05-23T13:58:46.620Z,763
2019-05-23T13:59:46.613Z,826
2019-05-23T14:00:46.538Z,756
2019-05-23T14:01:46.558Z,707
2019-05-23T14:02:46.616Z,474
2019-05-23T14:03:46.616Z,577